Accueil
METAR-TAF:

METAR-TAF

Aéroports :

Plaisance, Italie

latitude: 44-55N, longitude: 009-44E, altitude: 134 m

Observation

Le bulletin a été fait il y a 3 heures et 48 minutes, à 17:55 UTC
Vent 3 kt de sud-ouest
Température 4°C
Humidité 100%
Pression 1022 hPa
Visibilité: 4000 m
brume

METAR: LIMS 261755Z 22003KT 4000 BR NSC 04/04 Q1022 RMK SKC VIS MIN 4000 WIND THR30 23004KT GRN

Heure: 22:43 (21:43 UTC)


TAF: absent

Observations et prévisions météorologiques de plus de 4000 aéroports (messages METAR et TAF).

Les stations disponibles sont représentées par des disques jaunes et rouges sur la carte.

Passer la souris dessus pour voir le nom de la station.

Cliquer dessus pour voir les observations et prévisions météorologiques.

Pour changer de carte: cliquez sur les boutons verts avec une croix noire pour zoomer, sur le bouton vert avec un tiret pour effectuer un zoom arrière, ou sur les flèches vertes pour les cartes adjacentes.


METAR-TAF: